createdAt,value
2023-03-07T00:01:00.213Z,47.70
2023-03-07T00:03:26.800Z,47.03
2023-03-07T00:06:05.623Z,44.65
2023-03-07T00:08:32.739Z,46.88
2023-03-07T00:11:03.431Z,48.95
2023-03-07T00:13:31.749Z,45.63
2023-03-07T00:16:06.059Z,48.80
2023-03-07T00:18:33.093Z,50.45
2023-03-07T00:21:01.001Z,55.47
2023-03-07T00:23:27.412Z,47.65
2023-03-07T00:25:58.935Z,48.45
2023-03-07T00:28:25.340Z,50.45
2023-03-07T00:30:52.149Z,51.22
2023-03-07T00:33:18.559Z,49.10
2023-03-07T00:35:44.994Z,49.15
2023-03-07T00:38:11.538Z,49.63
2023-03-07T00:40:37.872Z,48.33
2023-03-07T00:43:04.212Z,54.35
2023-03-07T00:45:30.623Z,48.00
2023-03-07T00:47:57.712Z,50.42
2023-03-07T00:50:24.162Z,49.55
2023-03-07T00:52:50.469Z,47.83
2023-03-07T00:55:16.946Z,48.22
2023-03-07T00:57:43.295Z,45.80
2023-03-07T01:00:10.907Z,48.95
2023-03-07T01:02:37.301Z,46.55
2023-03-07T01:05:04.331Z,48.97
2023-03-07T01:07:30.650Z,45.90
2023-03-07T01:09:57.019Z,53.22
2023-03-07T01:12:23.366Z,44.53
2023-03-07T01:14:50.941Z,43.75
2023-03-07T01:17:17.393Z,47.38
2023-03-07T01:19:43.777Z,45.28
2023-03-07T01:22:10.103Z,45.78
2023-03-07T01:24:36.423Z,48.92
2023-03-07T01:27:02.822Z,44.50
2023-03-07T01:29:29.243Z,47.33
2023-03-07T01:31:55.629Z,46.65
2023-03-07T01:34:22.978Z,45.90
2023-03-07T01:36:49.391Z,42.47
2023-03-07T01:39:17.161Z,38.88
2023-03-07T01:41:44.771Z,44.22
2023-03-07T01:44:23.326Z,42.15
2023-03-07T01:46:50.276Z,42.83
2023-03-07T01:49:28.730Z,45.85
2023-03-07T01:52:18.620Z,44.72
2023-03-07T01:54:51.872Z,48.03
2023-03-07T01:57:20.617Z,41.67
2023-03-07T01:59:50.914Z,41.10
2023-03-07T02:02:22.559Z,43.45
2023-03-07T02:04:59.496Z,43.10
2023-03-07T02:07:31.819Z,41.40
2023-03-07T02:09:58.621Z,43.33
2023-03-07T02:12:25.034Z,43.60
2023-03-07T02:14:52.337Z,49.83
2023-03-07T02:17:19.095Z,40.33
2023-03-07T02:20:02.719Z,41.72
2023-03-07T02:22:29.518Z,41.22
2023-03-07T02:25:08.150Z,45.08
2023-03-07T02:27:37.107Z,42.65
2023-03-07T02:30:05.688Z,46.58
2023-03-07T02:32:32.115Z,42.85
2023-03-07T02:34:58.481Z,46.92
2023-03-07T02:37:38.415Z,46.58
2023-03-07T02:40:08.196Z,46.50
2023-03-07T02:42:38.499Z,46.47
2023-03-07T02:45:09.968Z,54.08
2023-03-07T02:47:36.502Z,47.28
2023-03-07T02:50:03.761Z,48.42
2023-03-07T02:52:30.376Z,46.95
2023-03-07T02:54:58.412Z,49.80
2023-03-07T02:57:24.796Z,54.13
2023-03-07T02:59:51.183Z,50.17
2023-03-07T03:02:17.587Z,48.88
2023-03-07T03:04:44.027Z,50.70
2023-03-07T03:07:10.654Z,50.65
2023-03-07T03:09:37.168Z,46.15
2023-03-07T03:12:03.747Z,48.13
2023-03-07T03:14:30.258Z,46.80
2023-03-07T03:16:56.664Z,47.58
2023-03-07T03:19:22.987Z,45.67
2023-03-07T03:21:49.968Z,48.65
2023-03-07T03:24:16.445Z,48.13
2023-03-07T03:26:42.859Z,48.95
2023-03-07T03:29:09.800Z,47.58
2023-03-07T03:31:36.391Z,41.92
2023-03-07T03:34:03.487Z,46.80
2023-03-07T03:36:29.874Z,46.80
2023-03-07T03:38:58.082Z,48.08
2023-03-07T03:41:24.995Z,45.20
2023-03-07T03:43:51.742Z,45.13
2023-03-07T03:46:19.693Z,46.05
2023-03-07T03:48:54.597Z,46.97
2023-03-07T03:51:22.656Z,49.42
2023-03-07T03:53:49.843Z,43.53
2023-03-07T03:56:18.882Z,48.33
2023-03-07T03:58:48.641Z,48.47
2023-03-07T04:01:15.446Z,47.38
2023-03-07T04:03:45.121Z,48.35
2023-03-07T04:06:18.580Z,48.30
2023-03-07T04:08:47.422Z,47.75
2023-03-07T04:11:14.368Z,49.58
2023-03-07T04:13:41.299Z,46.80
2023-03-07T04:16:08.086Z,50.50
2023-03-07T04:18:35.144Z,51.00
2023-03-07T04:21:01.721Z,46.85
2023-03-07T04:23:29.002Z,52.85
2023-03-07T04:25:57.868Z,47.55
2023-03-07T04:28:26.898Z,47.10
2023-03-07T04:30:53.756Z,49.55
2023-03-07T04:33:20.783Z,49.88
2023-03-07T04:35:47.267Z,50.33
2023-03-07T04:38:14.384Z,47.55
2023-03-07T04:40:40.798Z,50.15
2023-03-07T04:43:07.698Z,51.13
2023-03-07T04:45:37.113Z,49.22
2023-03-07T04:48:04.255Z,50.15
2023-03-07T04:50:30.872Z,51.75
2023-03-07T04:52:57.251Z,53.55
2023-03-07T04:55:23.639Z,51.67
2023-03-07T04:57:51.987Z,54.78
2023-03-07T05:00:19.554Z,47.20
2023-03-07T05:02:46.661Z,49.03
2023-03-07T05:05:13.078Z,51.13
2023-03-07T05:07:39.430Z,49.85
2023-03-07T05:10:06.467Z,50.20
2023-03-07T05:12:32.859Z,48.38
2023-03-07T05:15:00.736Z,47.72
2023-03-07T05:17:27.103Z,51.90
2023-03-07T05:19:56.362Z,49.05
2023-03-07T05:22:24.337Z,47.35
2023-03-07T05:24:53.114Z,47.22
2023-03-07T05:27:19.566Z,51.28
2023-03-07T05:29:46.205Z,50.63
2023-03-07T05:32:12.635Z,50.88
2023-03-07T05:34:39.194Z,50.97
2023-03-07T05:37:05.676Z,54.70
2023-03-07T05:39:32.156Z,47.50
2023-03-07T05:41:58.542Z,50.47
2023-03-07T05:44:34.264Z,49.83
2023-03-07T05:47:00.781Z,46.28
2023-03-07T05:49:27.194Z,48.00
2023-03-07T05:52:07.061Z,50.85
2023-03-07T05:54:33.609Z,49.67
2023-03-07T05:56:59.985Z,53.65
2023-03-07T05:59:26.377Z,49.88
2023-03-07T06:01:52.793Z,51.03
2023-03-07T06:04:19.227Z,49.70
2023-03-07T06:06:57.781Z,48.67
2023-03-07T06:09:28.081Z,51.42
2023-03-07T06:11:54.583Z,48.63
2023-03-07T06:14:21.264Z,48.03
2023-03-07T06:16:47.705Z,49.92
2023-03-07T06:19:16.978Z,50.47
2023-03-07T06:21:44.191Z,49.60
2023-03-07T06:24:13.000Z,49.22
2023-03-07T06:26:42.420Z,51.85
2023-03-07T06:29:08.823Z,50.00
2023-03-07T06:31:35.386Z,49.92
2023-03-07T06:34:01.866Z,46.97
2023-03-07T06:36:28.399Z,47.13
2023-03-07T06:38:55.174Z,55.53
2023-03-07T06:41:24.494Z,47.15
2023-03-07T06:43:52.820Z,52.70
2023-03-07T06:46:22.528Z,48.75
2023-03-07T06:48:57.665Z,47.95
2023-03-07T06:51:38.167Z,47.22
2023-03-07T06:54:07.096Z,47.22
2023-03-07T06:56:35.770Z,47.05
2023-03-07T06:59:02.228Z,51.50
2023-03-07T07:01:35.700Z,52.28
2023-03-07T07:04:04.978Z,45.45
2023-03-07T07:06:31.860Z,47.97
2023-03-07T07:08:59.372Z,42.88
2023-03-07T07:11:26.965Z,54.67
2023-03-07T07:13:53.824Z,46.28
2023-03-07T07:16:20.618Z,47.90
2023-03-07T07:18:49.484Z,48.17
2023-03-07T07:21:29.960Z,42.05
2023-03-07T07:23:57.593Z,43.63
2023-03-07T07:29:31.734Z,49.13
2023-03-07T07:32:29.559Z,43.95
2023-03-07T07:34:59.225Z,44.50
2023-03-07T07:37:26.773Z,42.13
2023-03-07T07:39:53.247Z,44.40
2023-03-07T07:42:19.703Z,46.28
2023-03-07T07:44:59.104Z,46.15
2023-03-07T07:47:27.907Z,48.17
2023-03-07T07:49:54.452Z,45.63
2023-03-07T07:52:23.134Z,44.97
2023-03-07T07:54:49.821Z,49.60
2023-03-07T07:57:16.361Z,43.75
2023-03-07T07:59:42.879Z,50.88
2023-03-07T08:02:13.737Z,44.78
2023-03-07T08:04:43.185Z,47.65
2023-03-07T08:07:09.703Z,44.78
2023-03-07T08:09:36.345Z,40.58
2023-03-07T08:12:17.110Z,45.47
2023-03-07T08:14:43.936Z,42.38
2023-03-07T08:17:21.882Z,41.22
2023-03-07T08:19:53.587Z,39.28
2023-03-07T08:22:21.089Z,42.17
2023-03-07T08:24:47.658Z,40.80
2023-03-07T08:27:14.330Z,41.63
2023-03-07T08:29:47.912Z,39.97
2023-03-07T08:32:15.396Z,40.70
2023-03-07T08:34:42.147Z,38.80
2023-03-07T08:37:10.689Z,40.55
2023-03-07T08:39:41.302Z,41.50
2023-03-07T08:42:13.853Z,40.83
2023-03-07T08:44:42.919Z,38.60
2023-03-07T08:47:11.355Z,44.40
2023-03-07T08:49:38.066Z,37.95
2023-03-07T08:52:04.865Z,38.08
2023-03-07T08:54:32.423Z,43.15
2023-03-07T08:57:00.391Z,38.50
2023-03-07T08:59:27.182Z,41.88
2023-03-07T09:01:57.478Z,40.05
2023-03-07T09:04:24.351Z,41.28
2023-03-07T09:06:55.612Z,40.78
2023-03-07T09:09:22.735Z,47.22
2023-03-07T09:11:50.377Z,45.63
2023-03-07T09:14:16.927Z,41.90
2023-03-07T09:19:26.588Z,41.10
2023-03-07T09:21:53.324Z,45.97
2023-03-07T09:24:19.820Z,46.53
2023-03-07T09:26:50.434Z,43.45
2023-03-07T09:29:16.981Z,40.83
2023-03-07T09:31:49.294Z,40.53
2023-03-07T09:34:18.652Z,44.03
2023-03-07T09:36:45.412Z,45.17
2023-03-07T09:39:17.349Z,41.63
2023-03-07T09:42:23.593Z,39.78
2023-03-07T09:45:11.463Z,42.22
2023-03-07T09:48:04.341Z,42.70
2023-03-07T09:51:10.295Z,37.85
2023-03-07T09:53:50.932Z,26.80
2023-03-07T09:56:47.332Z,24.42
2023-03-07T09:59:24.095Z,21.20
2023-03-07T10:02:23.126Z,22.08
2023-03-07T10:04:55.943Z,21.33
2023-03-07T10:07:25.663Z,21.67
2023-03-07T10:09:58.757Z,20.77
2023-03-07T10:12:43.737Z,21.27
2023-03-07T10:15:54.959Z,20.02
2023-03-07T10:18:50.883Z,18.77
2023-03-07T10:21:47.758Z,18.63
2023-03-07T10:24:29.843Z,16.98
2023-03-07T10:26:56.170Z,19.10
2023-03-07T10:29:27.167Z,18.80
2023-03-07T10:32:14.117Z,19.48
2023-03-07T10:34:40.950Z,19.92
2023-03-07T10:37:16.284Z,21.83
2023-03-07T10:39:54.184Z,21.15
2023-03-07T10:42:42.117Z,21.10
2023-03-07T10:45:18.926Z,19.00
2023-03-07T10:47:45.720Z,19.85
2023-03-07T10:50:37.243Z,20.98
2023-03-07T10:53:09.446Z,18.35
2023-03-07T10:55:38.331Z,19.48
2023-03-07T10:58:25.988Z,19.55
2023-03-07T11:01:16.068Z,18.45
2023-03-07T11:03:58.628Z,18.23
2023-03-07T11:06:29.151Z,16.20
2023-03-07T11:09:24.267Z,18.70
2023-03-07T11:12:30.712Z,16.95
2023-03-07T11:15:10.692Z,18.05
2023-03-07T11:17:45.631Z,18.02
2023-03-07T11:20:38.531Z,18.42
2023-03-07T11:23:14.442Z,18.58
2023-03-07T11:25:45.541Z,17.85
2023-03-07T11:28:40.837Z,20.10
2023-03-07T11:31:18.414Z,18.38
2023-03-07T11:33:59.008Z,17.88
2023-03-07T11:36:37.026Z,19.55
2023-03-07T11:39:31.397Z,17.67
2023-03-07T11:42:04.584Z,17.17
2023-03-07T11:44:34.534Z,19.23
2023-03-07T11:47:22.513Z,19.45
2023-03-07T11:50:17.366Z,18.67
2023-03-07T11:52:50.154Z,17.60
2023-03-07T11:55:43.689Z,16.63
2023-03-07T11:58:54.808Z,18.20
2023-03-07T12:01:36.850Z,16.92
2023-03-07T12:04:12.009Z,18.25
2023-03-07T12:07:14.368Z,19.20
2023-03-07T12:10:07.085Z,17.88
2023-03-07T12:13:18.548Z,18.73
2023-03-07T12:16:06.052Z,16.83
2023-03-07T12:19:03.363Z,17.73
2023-03-07T12:22:02.919Z,18.63
2023-03-07T12:25:11.261Z,18.10
2023-03-07T12:28:05.227Z,18.65
2023-03-07T12:31:39.283Z,16.60
2023-03-07T12:34:26.268Z,17.05
2023-03-07T12:37:36.451Z,18.38
2023-03-07T12:40:14.741Z,17.95
2023-03-07T12:43:02.631Z,18.60
2023-03-07T12:46:24.448Z,18.60
2023-03-07T12:49:37.886Z,17.10
2023-03-07T12:52:29.007Z,18.45
2023-03-07T12:55:08.363Z,16.65
2023-03-07T12:57:42.312Z,18.85
2023-03-07T13:03:55.380Z,18.45
2023-03-07T13:06:23.237Z,20.10
2023-03-07T13:08:53.280Z,21.65
2023-03-07T13:11:26.857Z,21.10
2023-03-07T13:14:04.475Z,20.83
2023-03-07T13:16:45.457Z,20.25
2023-03-07T13:19:30.812Z,20.83
2023-03-07T13:25:26.014Z,19.58
2023-03-07T13:28:33.952Z,19.63
2023-03-07T13:31:30.942Z,19.00
2023-03-07T13:34:50.518Z,21.17
2023-03-07T13:38:28.486Z,18.88
2023-03-07T13:41:03.574Z,18.08
2023-03-07T13:43:48.257Z,18.30
2023-03-07T13:46:38.294Z,18.27
2023-03-07T13:49:20.219Z,17.65
2023-03-07T13:52:31.938Z,17.42
2023-03-07T13:55:01.515Z,17.88
2023-03-07T13:57:39.164Z,20.35
2023-03-07T14:03:37.980Z,18.33
2023-03-07T14:06:24.185Z,19.00
2023-03-07T14:08:54.870Z,17.90
2023-03-07T14:11:53.443Z,18.98
2023-03-07T14:14:45.970Z,18.60
2023-03-07T14:17:20.913Z,19.95
2023-03-07T14:20:11.520Z,19.13
2023-03-07T14:23:01.907Z,17.73
2023-03-07T14:25:33.655Z,18.10
2023-03-07T14:28:03.140Z,20.00
2023-03-07T14:30:32.678Z,20.38
2023-03-07T14:33:00.955Z,21.48
2023-03-07T14:35:35.780Z,20.70
2023-03-07T14:38:05.804Z,18.48
2023-03-07T14:40:59.820Z,20.50
2023-03-07T14:43:38.463Z,18.83
2023-03-07T14:46:24.958Z,18.55
2023-03-07T14:48:56.075Z,21.20
2023-03-07T14:51:26.562Z,20.75
2023-03-07T14:53:53.424Z,23.58
2023-03-07T14:56:24.949Z,22.33
2023-03-07T14:58:54.678Z,24.23
2023-03-07T15:01:21.689Z,26.20
2023-03-07T15:03:54.030Z,27.20
2023-03-07T15:06:24.007Z,25.63
2023-03-07T15:08:52.326Z,25.73
2023-03-07T15:11:44.641Z,25.52
2023-03-07T15:14:20.038Z,24.30
2023-03-07T15:16:50.813Z,23.90
2023-03-07T15:19:20.135Z,22.88
2023-03-07T15:21:58.402Z,22.25
2023-03-07T15:24:32.213Z,22.35
2023-03-07T15:27:00.125Z,19.88
2023-03-07T15:29:29.802Z,21.13
2023-03-07T15:32:08.824Z,20.60
2023-03-07T15:34:39.700Z,18.70
2023-03-07T15:37:32.855Z,18.25
2023-03-07T15:40:25.003Z,18.00
2023-03-07T15:42:54.442Z,19.35
2023-03-07T15:45:33.263Z,21.30
2023-03-07T15:48:11.092Z,20.88
2023-03-07T15:50:37.842Z,21.15
2023-03-07T15:53:10.219Z,21.98
2023-03-07T15:55:38.874Z,20.92
2023-03-07T15:58:15.565Z,21.55
2023-03-07T16:01:15.870Z,19.98
2023-03-07T16:04:27.334Z,20.65
2023-03-07T16:06:56.952Z,20.80
2023-03-07T16:09:23.424Z,21.20
2023-03-07T16:11:49.939Z,21.70
2023-03-07T16:14:29.176Z,22.50
2023-03-07T16:16:59.664Z,21.15
2023-03-07T16:19:26.747Z,21.38
2023-03-07T16:21:53.513Z,22.77
2023-03-07T16:24:20.281Z,23.95
2023-03-07T16:26:47.373Z,24.92
2023-03-07T16:29:20.429Z,24.17
2023-03-07T16:31:47.127Z,24.00
2023-03-07T16:34:16.031Z,24.35
2023-03-07T16:36:42.963Z,25.15
2023-03-07T16:39:10.648Z,24.73
2023-03-07T16:41:39.285Z,23.77
2023-03-07T16:44:05.639Z,26.67
2023-03-07T16:46:34.717Z,25.30
2023-03-07T16:49:03.904Z,25.35
2023-03-07T16:51:31.062Z,26.52
2023-03-07T16:53:59.656Z,26.90
2023-03-07T16:56:33.150Z,26.08
2023-03-07T16:59:00.708Z,27.63
2023-03-07T17:01:27.412Z,27.23
2023-03-07T17:03:56.317Z,27.52
2023-03-07T17:06:33.625Z,27.90
2023-03-07T17:09:05.818Z,26.58
2023-03-07T17:11:32.705Z,29.08
2023-03-07T17:14:02.809Z,28.23
2023-03-07T17:16:33.378Z,30.58
2023-03-07T17:18:59.738Z,28.65
2023-03-07T17:21:26.401Z,31.55
2023-03-07T17:23:52.830Z,31.35
2023-03-07T17:26:34.303Z,30.42
2023-03-07T17:29:04.528Z,29.20
2023-03-07T17:31:31.074Z,31.92
2023-03-07T17:33:57.477Z,30.90
2023-03-07T17:36:23.934Z,32.58
2023-03-07T17:38:50.357Z,31.77
2023-03-07T17:41:16.924Z,31.88
2023-03-07T17:43:44.468Z,28.80
2023-03-07T17:46:12.118Z,29.90
2023-03-07T17:48:38.596Z,28.00
2023-03-07T17:51:09.459Z,30.80
2023-03-07T17:53:37.079Z,29.15
2023-03-07T17:56:10.789Z,30.48
2023-03-07T17:58:38.448Z,29.73
2023-03-07T18:01:11.054Z,28.73
2023-03-07T18:03:38.608Z,29.17
2023-03-07T18:06:05.653Z,27.63
2023-03-07T18:08:32.332Z,28.92
2023-03-07T18:11:10.727Z,26.08
2023-03-07T18:13:37.832Z,25.60
2023-03-07T18:16:05.881Z,25.35
2023-03-07T18:18:34.740Z,25.38
2023-03-07T18:21:04.755Z,23.60
2023-03-07T18:23:33.078Z,23.70
2023-03-07T18:26:01.636Z,24.85
2023-03-07T18:28:28.818Z,24.98
2023-03-07T18:31:04.758Z,23.75
2023-03-07T18:33:32.336Z,23.48
2023-03-07T18:35:59.304Z,22.98
2023-03-07T18:38:26.442Z,24.15
2023-03-07T18:41:03.829Z,24.17
2023-03-07T18:43:45.788Z,22.67
2023-03-07T18:46:17.791Z,22.45
2023-03-07T18:48:44.820Z,23.75
2023-03-07T18:51:15.169Z,25.35
2023-03-07T18:53:42.606Z,25.40
2023-03-07T18:56:14.137Z,26.85
2023-03-07T18:58:41.865Z,24.65
2023-03-07T19:01:19.923Z,25.13
2023-03-07T19:03:51.294Z,24.67
2023-03-07T19:06:20.373Z,25.00
2023-03-07T19:08:47.277Z,24.95
2023-03-07T19:11:14.635Z,24.75
2023-03-07T19:13:44.399Z,25.85
2023-03-07T19:16:49.579Z,25.00
2023-03-07T19:19:16.153Z,24.42
2023-03-07T19:21:42.840Z,24.45
2023-03-07T19:24:13.378Z,23.35
2023-03-07T19:26:41.670Z,22.15
2023-03-07T19:29:09.770Z,23.45
2023-03-07T19:31:36.484Z,23.63
2023-03-07T19:34:07.020Z,22.35
2023-03-07T19:36:45.672Z,21.90
2023-03-07T19:39:23.348Z,22.27
2023-03-07T19:41:50.050Z,20.55
2023-03-07T19:44:42.974Z,23.05
2023-03-07T19:47:09.536Z,22.17
2023-03-07T19:49:38.281Z,23.25
2023-03-07T19:52:10.258Z,22.00
2023-03-07T19:54:36.765Z,21.40
2023-03-07T19:57:03.373Z,22.73
2023-03-07T19:59:29.754Z,21.40
2023-03-07T20:01:59.855Z,23.30
2023-03-07T20:04:26.377Z,22.40
2023-03-07T20:06:52.975Z,23.52
2023-03-07T20:09:19.581Z,23.15
2023-03-07T20:11:46.672Z,24.20
2023-03-07T20:14:13.536Z,25.52
2023-03-07T20:16:40.678Z,22.77
2023-03-07T20:19:09.534Z,24.33
2023-03-07T20:21:36.897Z,24.38
2023-03-07T20:24:04.708Z,25.33
2023-03-07T20:26:40.694Z,25.35
2023-03-07T20:29:07.912Z,26.35
2023-03-07T20:31:37.521Z,25.67
2023-03-07T20:34:05.736Z,26.23
2023-03-07T20:36:35.013Z,27.23
2023-03-07T20:39:08.132Z,25.25
2023-03-07T20:41:37.542Z,25.37
2023-03-07T20:44:06.214Z,23.95
2023-03-07T20:46:33.737Z,25.15
2023-03-07T20:49:01.604Z,24.55
2023-03-07T20:51:30.647Z,24.80
2023-03-07T20:54:01.417Z,22.67
2023-03-07T20:56:30.255Z,22.92
2023-03-07T20:58:57.898Z,22.33
2023-03-07T21:01:33.666Z,21.63
2023-03-07T21:04:09.273Z,21.48
2023-03-07T21:06:37.450Z,19.77
2023-03-07T21:09:09.955Z,19.23
2023-03-07T21:11:42.256Z,20.33
2023-03-07T21:14:08.814Z,20.23
2023-03-07T21:16:37.422Z,18.85
2023-03-07T21:19:05.728Z,19.33
2023-03-07T21:21:34.265Z,18.98
2023-03-07T21:24:01.050Z,17.67
2023-03-07T21:26:29.944Z,18.67
2023-03-07T21:28:59.903Z,18.30
2023-03-07T21:31:28.919Z,18.70
2023-03-07T21:33:58.669Z,18.33
2023-03-07T21:36:29.299Z,17.98
2023-03-07T21:38:58.726Z,17.23
2023-03-07T21:41:25.558Z,17.52
2023-03-07T21:43:56.107Z,17.05
2023-03-07T21:46:25.187Z,18.48
2023-03-07T21:48:54.794Z,18.63
2023-03-07T21:51:21.430Z,16.80
2023-03-07T21:53:47.914Z,17.63
2023-03-07T21:56:19.487Z,18.27
2023-03-07T21:58:50.235Z,17.73
2023-03-07T22:01:21.933Z,18.20
2023-03-07T22:03:51.566Z,18.45
2023-03-07T22:06:18.229Z,19.00
2023-03-07T22:08:47.853Z,17.85
2023-03-07T22:11:14.424Z,18.52
2023-03-07T22:13:41.959Z,18.63
2023-03-07T22:16:16.667Z,18.52
2023-03-07T22:18:45.323Z,19.05
2023-03-07T22:21:17.297Z,18.33
2023-03-07T22:23:44.429Z,20.02
2023-03-07T22:26:11.790Z,18.55
2023-03-07T22:28:43.954Z,18.63
2023-03-07T22:31:12.757Z,19.25
2023-03-07T22:33:40.910Z,18.73
2023-03-07T22:36:10.994Z,19.13
2023-03-07T22:38:41.660Z,18.55
2023-03-07T22:41:12.115Z,19.85
2023-03-07T22:43:38.951Z,19.42
2023-03-07T22:46:06.269Z,18.42
2023-03-07T22:48:33.642Z,18.27
2023-03-07T22:51:02.844Z,18.42
2023-03-07T22:53:31.215Z,17.65
2023-03-07T22:56:03.287Z,19.52
2023-03-07T22:58:30.598Z,19.20
2023-03-07T23:00:57.225Z,17.80
2023-03-07T23:03:44.144Z,19.33
2023-03-07T23:06:11.986Z,17.38
2023-03-07T23:08:41.799Z,17.77
2023-03-07T23:11:16.463Z,19.40
2023-03-07T23:13:43.482Z,17.95
2023-03-07T23:16:21.756Z,20.00
2023-03-07T23:18:50.676Z,19.05
2023-03-07T23:21:20.162Z,18.83
2023-03-07T23:23:47.068Z,18.55
2023-03-07T23:26:29.294Z,19.40
2023-03-07T23:28:56.136Z,17.52
2023-03-07T23:31:32.248Z,17.77
2023-03-07T23:34:01.413Z,19.77
2023-03-07T23:36:31.459Z,19.58
2023-03-07T23:38:59.812Z,17.58
2023-03-07T23:41:27.224Z,19.75
2023-03-07T23:43:54.886Z,19.85
2023-03-07T23:46:21.891Z,19.33
2023-03-07T23:48:48.391Z,18.02
2023-03-07T23:51:17.611Z,19.33
2023-03-07T23:53:44.171Z,17.70
2023-03-07T23:56:11.733Z,19.10
2023-03-07T23:58:38.501Z,17.77
